Startpagina
METAR-TAF:

METAR-TAF

Vliegvelden :

Internationale luchthaven Kopenhagen Kastrup

Kopenhagen, Denemarken

breedte: 55-37N, lengte: 012-39E, hoogte: 5 m

Actueel weer

Dit bericht is 19 minuten geleden gemaakt, om 20:50 UTC
Wind 4 kt uit het oostnoordoosten
Temperatuur 20°C
Vochtigheid 68%
Druk 1011 hPa
Zicht 10 km of meer
geen wolken onder 1500 m en geen cumulonimbus

METAR: EKCH 212050Z 07004KT CAVOK 20/14 Q1011 NOSIG

Tijdstip: 23:09 (21:09 UTC)

Verwachting

Dit bericht is 4 uur en het 8 minuten geleden gemaakt, om 17:01 UTC
Verwachting geldig van 21 om 18 UTC tot 22 om 18 UTC
Wind 3 kt uit variabele richting
Zicht 10 km of meer
geen wolken onder 1500 m en geen cumulonimbus

TAF: EKCH 211701Z 2118/2218 VRB03KT CAVOK

Waarnemingen en weersverwachtingen van meer dan 4000 vliegvelden (METAR en TAF).

De beschikbare stations zijn de gele en rode punten op de kaart.

Ga met uw muis naar het station om de naam te zien.

Klik dan om waarnemingen en weersverwachtingen te zien.

kaart wijzigen: klik op de groene knoppen met een zwart kruis om in te zoomen, op de groene knop met een streepje om uit te zoomen of op de groene pijlen voor aangrenzende kaarten.


METAR-TAF: